Time;durP1;ratioP1;P1;durP2;ratioP2;P2;SDS_P1;SDS_P2;PMS_P1;PMS_P2;Temp;Humidity;BMP_temperature;BMP_pressure;BME280_temperature;BME280_humidity;BME280_pressure;Samples;Min_cycle;Max_cycle;Signal;HPM_P1;HPM_P2
2021/04/20 00:02:24;;;;;;;;;;;;;;;9.33;63.06;99823.22;1682073;79;20163;-59
2021/04/20 00:04:54;;;;;;;;;;;;;;;9.31;63.06;99818.63;1805774;79;20190;-58
2021/04/20 00:07:22;;;;;;;;;;;;;;;9.28;63.19;99816.40;1782802;79;20216;-58
2021/04/20 00:09:50;;;;;;;;;;;;;;;9.26;63.29;99811.27;1800693;79;22165;-57
2021/04/20 00:12:18;;;;;;;;;;;;;;;9.26;63.31;99811.27;1801116;79;20205;-56
2021/04/20 00:14:46;;;;;;;;;;;;;;;9.26;63.34;99811.77;1800186;79;20168;-58
2021/04/20 00:17:14;;;;;;;;;;;;;;;9.26;63.31;99807.27;1799645;79;20131;-55
2021/04/20 00:19:42;;;;;;;;;;;;;;;9.27;63.20;99808.07;1799840;79;20150;-56
2021/04/20 00:22:10;;;;;;;;;;;;;;;9.25;63.15;99801.61;1800238;79;23687;-56
2021/04/20 00:24:38;;;;;;;;;;;;;;;9.22;63.11;99801.25;1796728;79;20161;-56
2021/04/20 00:27:06;;;;;;;;;;;;;;;9.19;63.12;99795.81;1783762;79;20116;-56
2021/04/20 00:29:34;;;;;;;;;;;;;;;9.18;63.13;99795.52;1787101;79;20156;-58
2021/04/20 00:32:03;;;;;;;;;;;;;;;9.15;63.19;99787.13;1754094;79;20225;-58
2021/04/20 00:34:31;;;;;;;;;;;;;;;9.13;63.30;99790.03;1786126;79;21188;-57
2021/04/20 00:36:59;;;;;;;;;;;;;;;9.09;63.38;99786.97;1785722;79;20223;-57
2021/04/20 00:39:27;;;;;;;;;;;;;;;9.06;63.52;99784.73;1783372;79;20227;-57
2021/04/20 00:42:05;;;;;;;;;;;;;;;9.05;63.57;99782.28;1783431;79;20248;-56
2021/04/20 00:44:34;;;;;;;;;;;;;;;9.02;63.67;99781.39;1787399;79;20214;-57
2021/04/20 00:47:03;;;;;;;;;;;;;;;8.98;63.79;99776.19;1784277;79;21412;-59
2021/04/20 00:49:31;;;;;;;;;;;;;;;8.96;63.91;99775.61;1787135;79;20646;-57
2021/04/20 00:51:58;;;;;;;;;;;;;;;8.91;64.04;99769.06;1785180;79;20173;-57
2021/04/20 00:54:26;;;;;;;;;;;;;;;8.90;64.15;99767.95;1783465;79;20179;-56
2021/04/20 00:56:54;;;;;;;;;;;;;;;8.88;64.35;99767.37;1784246;79;20381;-57
2021/04/20 00:59:22;;;;;;;;;;;;;;;8.85;64.53;99761.09;1785095;79;21201;-58
2021/04/20 01:01:50;;;;;;;;;;;;;;;8.79;64.85;99759.31;1757057;79;20129;-58
2021/04/20 01:04:19;;;;;;;;;;;;;;;8.73;65.07;99756.50;1754986;79;20144;-57
2021/04/20 01:06:49;;;;;;;;;;;;;;;8.70;65.30;99750.77;1784563;79;20227;-57
2021/04/20 01:09:17;;;;;;;;;;;;;;;8.68;65.41;99744.30;1784456;79;20306;-57
2021/04/20 01:11:45;;;;;;;;;;;;;;;8.66;65.53;99742.39;1781678;79;21159;-57
2021/04/20 01:14:13;;;;;;;;;;;;;;;8.65;65.66;99739.94;1785372;79;20152;-58
2021/04/20 01:16:40;;;;;;;;;;;;;;;8.64;65.77;99731.61;1786441;79;20498;-58
2021/04/20 01:19:09;;;;;;;;;;;;;;;8.63;65.96;99729.47;1783993;79;20149;-57
2021/04/20 01:21:37;;;;;;;;;;;;;;;8.60;66.03;99727.24;1753388;79;20274;-57
2021/04/20 01:24:11;;;;;;;;;;;;;;;8.55;66.20;99727.91;1784004;79;21245;-61
2021/04/20 01:26:45;;;;;;;;;;;;;;;8.50;66.33;99726.40;1786439;79;20206;-57
2021/04/20 01:29:13;;;;;;;;;;;;;;;8.41;66.66;99720.48;1785893;79;20117;-57
2021/04/20 01:31:42;;;;;;;;;;;;;;;8.37;66.90;99720.63;1785057;79;20221;-57
2021/04/20 01:34:10;;;;;;;;;;;;;;;8.42;67.06;99718.13;1785168;79;20149;-56
2021/04/20 01:36:38;;;;;;;;;;;;;;;8.49;67.09;99719.94;1784268;79;21208;-57
2021/04/20 01:39:08;;;;;;;;;;;;;;;8.53;67.03;99717.94;1782913;79;20168;-56
2021/04/20 01:41:35;;;;;;;;;;;;;;;8.58;66.98;99711.44;1785880;79;20230;-57
2021/04/20 01:44:04;;;;;;;;;;;;;;;8.61;66.90;99711.48;1785144;79;20200;-57
2021/04/20 01:46:32;;;;;;;;;;;;;;;8.63;66.82;99704.59;1785773;79;20230;-57
2021/04/20 01:48:59;;;;;;;;;;;;;;;8.65;66.72;99705.20;1691324;84;22087;-56
2021/04/20 01:51:27;;;;;;;;;;;;;;;8.66;66.68;99700.97;1691935;84;20206;-57
2021/04/20 01:53:55;;;;;;;;;;;;;;;8.66;66.67;99696.96;1692879;84;20248;-58
2021/04/20 01:56:23;;;;;;;;;;;;;;;8.65;66.63;99691.84;1693518;84;20314;-56
2021/04/20 01:58:51;;;;;;;;;;;;;;;8.63;66.70;99694.73;1693874;84;20549;-57
2021/04/20 02:01:20;;;;;;;;;;;;;;;8.64;66.77;99692.34;1693836;84;22188;-56
2021/04/20 02:03:49;;;;;;;;;;;;;;;8.64;66.85;99693.67;1693797;84;20316;-56
2021/04/20 02:06:18;;;;;;;;;;;;;;;8.62;66.89;99686.41;1694304;84;20262;-57
2021/04/20 02:08:49;;;;;;;;;;;;;;;8.58;66.94;99686.05;1694674;84;20246;-55
2021/04/20 02:11:18;;;;;;;;;;;;;;;8.55;67.02;99677.64;1694969;84;20247;-56
2021/04/20 02:13:46;;;;;;;;;;;;;;;8.56;67.02;99679.29;1748996;79;21216;-58
2021/04/20 02:16:14;;;;;;;;;;;;;;;8.54;67.00;99675.50;1785638;79;20617;-56
2021/04/20 02:18:44;;;;;;;;;;;;;;;8.51;67.08;99681.30;1783138;79;20572;-56
2021/04/20 02:21:12;;;;;;;;;;;;;;;8.48;67.18;99683.57;1785206;79;20554;-56
2021/04/20 02:23:45;;;;;;;;;;;;;;;8.37;67.29;99685.91;1783301;79;20248;-56
2021/04/20 02:26:14;;;;;;;;;;;;;;;8.29;67.53;99682.20;1782851;79;21310;-57
2021/04/20 02:28:42;;;;;;;;;;;;;;;8.20;67.79;99682.98;1783763;79;20220;-56
2021/04/20 02:31:11;;;;;;;;;;;;;;;8.15;68.13;99678.81;1784108;79;20153;-55
2021/04/20 02:33:41;;;;;;;;;;;;;;;8.12;68.26;99669.91;1785170;79;20138;-55
2021/04/20 02:36:09;;;;;;;;;;;;;;;8.13;68.36;99676.08;1755058;79;20179;-57
2021/04/20 02:38:37;;;;;;;;;;;;;;;8.16;68.38;99667.63;1782992;79;21205;-57
2021/04/20 02:41:05;;;;;;;;;;;;;;;8.17;68.37;99667.91;1754240;79;20559;-56
2021/04/20 02:43:34;;;;;;;;;;;;;;;8.17;68.40;99671.41;1783734;79;20136;-57
2021/04/20 02:46:02;;;;;;;;;;;;;;;8.17;68.41;99666.58;1784286;79;20153;-56
2021/04/20 02:48:31;;;;;;;;;;;;;;;8.15;68.46;99666.80;1785848;79;20134;-57
2021/04/20 02:50:59;;;;;;;;;;;;;;;8.16;68.52;99664.96;1729520;79;21221;-57
2021/04/20 02:53:27;;;;;;;;;;;;;;;8.20;68.49;99668.30;1783815;79;20231;-57
2021/04/20 02:55:56;;;;;;;;;;;;;;;8.27;68.34;99667.42;1787623;79;20133;-57
2021/04/20 02:58:26;;;;;;;;;;;;;;;8.28;68.23;99662.39;1782980;78;20218;-57
2021/04/20 03:00:57;;;;;;;;;;;;;;;8.29;68.17;99655.48;1784513;78;20231;-58
2021/04/20 03:03:25;;;;;;;;;;;;;;;8.32;68.02;99653.70;1782209;79;22483;-57
2021/04/20 03:05:53;;;;;;;;;;;;;;;8.35;67.93;99652.45;1754782;79;20126;-57
2021/04/20 03:08:21;;;;;;;;;;;;;;;8.36;67.90;99654.91;1758075;79;20167;-56
2021/04/20 03:10:50;;;;;;;;;;;;;;;8.32;67.88;99655.05;1782565;79;20185;-57
2021/04/20 03:13:18;;;;;;;;;;;;;;;8.31;67.92;99651.27;1785033;79;20254;-57
2021/04/20 03:15:46;;;;;;;;;;;;;;;8.31;68.01;99659.27;1753287;79;21301;-57
2021/04/20 03:18:14;;;;;;;;;;;;;;;8.36;68.03;99655.41;1785163;78;20149;-57
2021/04/20 03:20:41;;;;;;;;;;;;;;;8.44;68.00;99658.33;1788154;79;20180;-57
2021/04/20 03:23:09;;;;;;;;;;;;;;;8.56;67.85;99657.39;1782025;78;20143;-57
2021/04/20 03:25:37;;;;;;;;;;;;;;;8.73;67.51;99662.13;1786657;79;20754;-57
2021/04/20 03:28:05;;;;;;;;;;;;;;;8.88;67.15;99668.47;1777474;79;22099;-56
2021/04/20 03:30:33;;;;;;;;;;;;;;;9.00;66.91;99665.33;1778206;80;20148;-56
2021/04/20 03:33:14;;;;;;;;;;;;;;;9.24;66.51;99662.75;1692233;84;20254;-56
2021/04/20 03:35:48;;;;;;;;;;;;;;;9.47;65.95;99661.50;1689861;84;20283;-55
2021/04/20 03:38:26;;;;;;;;;;;;;;;9.65;65.37;99666.50;1686116;84;20256;-55
2021/04/20 03:41:07;;;;;;;;;;;;;;;9.76;64.84;99663.05;1817951;77;20265;-58
2021/04/20 03:43:36;;;;;;;;;;;;;;;9.69;64.57;99652.95;1791283;79;20307;-56
2021/04/20 03:46:07;;;;;;;;;;;;;;;9.67;64.61;99660.38;1799100;79;21363;-58
2021/04/20 03:48:38;;;;;;;;;;;;;;;9.65;64.54;99653.12;1794106;79;20562;-59
2021/04/20 03:51:10;;;;;;;;;;;;;;;9.66;64.64;99652.08;1781889;79;20141;-57
2021/04/20 03:53:39;;;;;;;;;;;;;;;9.73;64.65;99648.78;1789888;79;20218;-58
2021/04/20 03:56:07;;;;;;;;;;;;;;;9.81;64.49;99641.73;1782073;79;20205;-58
2021/04/20 03:58:34;;;;;;;;;;;;;;;9.91;64.20;99639.00;1791794;79;21265;-58
2021/04/20 04:01:04;;;;;;;;;;;;;;;10.03;64.08;99642.52;1791237;79;20129;-56
2021/04/20 04:03:32;;;;;;;;;;;;;;;10.30;63.71;99640.72;1783505;79;20145;-61
2021/04/20 04:06:00;;;;;;;;;;;;;;;10.53;62.97;99647.95;1791430;79;20131;-59
2021/04/20 04:08:27;;;;;;;;;;;;;;;10.63;62.55;99644.66;1780896;79;20167;-59
2021/04/20 04:10:57;;;;;;;;;;;;;;;10.67;62.07;99646.66;1741315;79;21214;-60
2021/04/20 04:13:26;;;;;;;;;;;;;;;10.68;61.74;99654.16;1779167;79;20202;-60
2021/04/20 04:16:01;;;;;;;;;;;;;;;10.70;61.68;99653.39;1781486;79;20232;-60
2021/04/20 04:18:30;;;;;;;;;;;;;;;10.77;61.38;99644.70;1797269;79;20139;-60
2021/04/20 04:20:59;;;;;;;;;;;;;;;10.87;61.06;99642.22;1787999;79;20222;-61
2021/04/20 04:23:39;;;;;;;;;;;;;;;11.19;60.81;99636.95;1788425;79;22057;-62
2021/04/20 04:26:09;;;;;;;;;;;;;;;11.72;59.58;99633.03;1759892;80;20677;-62
2021/04/20 04:28:38;;;;;;;;;;;;;;;12.00;58.43;99628.67;1758417;80;20169;-60
2021/04/20 04:31:06;;;;;;;;;;;;;;;12.04;57.87;99632.50;1752792;80;20218;-60
2021/04/20 04:33:34;;;;;;;;;;;;;;;12.01;57.60;99620.08;1763247;80;20260;-61
2021/04/20 04:36:02;;;;;;;;;;;;;;;11.95;57.32;99621.86;1763870;80;21204;-61
2021/04/20 04:38:31;;;;;;;;;;;;;;;11.88;57.32;99613.13;1761671;80;20563;-61
2021/04/20 04:40:59;;;;;;;;;;;;;;;11.82;57.11;99619.48;1743328;80;20235;-64
2021/04/20 04:43:27;;;;;;;;;;;;;;;11.63;57.16;99620.24;1739841;81;20642;-60
2021/04/20 04:45:56;;;;;;;;;;;;;;;11.48;57.47;99619.46;1734295;80;20168;-61
2021/04/20 04:48:25;;;;;;;;;;;;;;;11.34;57.68;99613.06;1738470;81;21316;-59
2021/04/20 04:50:53;;;;;;;;;;;;;;;11.22;57.91;99622.51;1732228;81;20214;-60
2021/04/20 04:53:30;;;;;;;;;;;;;;;11.11;58.05;99616.66;1832420;77;20177;-60
2021/04/20 04:55:59;;;;;;;;;;;;;;;10.90;58.33;99624.85;1735401;82;20682;-60
2021/04/20 04:58:30;;;;;;;;;;;;;;;10.79;58.64;99618.98;1772263;79;22114;-61
2021/04/20 05:00:59;;;;;;;;;;;;;;;10.67;58.95;99619.86;1761711;80;20154;-59
2021/04/20 05:03:26;;;;;;;;;;;;;;;10.58;59.32;99613.75;1766166;80;20134;-60
2021/04/20 05:06:01;;;;;;;;;;;;;;;10.54;59.56;99617.94;1747877;80;20238;-58
2021/04/20 05:08:30;;;;;;;;;;;;;;;10.51;59.73;99609.34;1722893;82;20273;-60
2021/04/20 05:11:01;;;;;;;;;;;;;;;10.57;59.88;99602.73;1739937;81;21218;-59
2021/04/20 05:13:30;;;;;;;;;;;;;;;10.55;59.73;99608.33;1737790;81;20133;-60
2021/04/20 05:16:04;;;;;;;;;;;;;;;10.61;59.92;99603.89;1737686;81;20202;-58
2021/04/20 05:18:33;;;;;;;;;;;;;;;10.72;59.54;99600.88;1737099;81;20304;-58
2021/04/20 05:21:01;;;;;;;;;;;;;;;10.84;59.38;99599.00;1737135;81;20219;-60
2021/04/20 05:23:28;;;;;;;;;;;;;;;10.97;59.00;99595.23;1704696;81;21212;-59
2021/04/20 05:25:57;;;;;;;;;;;;;;;11.12;58.84;99593.35;1739911;81;20195;-60
2021/04/20 05:28:25;;;;;;;;;;;;;;;11.29;58.42;99598.73;1738744;81;20181;-59
2021/04/20 05:30:53;;;;;;;;;;;;;;;11.48;57.88;99593.42;1737316;81;20121;-59
2021/04/20 05:33:20;;;;;;;;;;;;;;;11.73;57.42;99590.88;1738067;81;20285;-60
2021/04/20 05:35:48;;;;;;;;;;;;;;;12.11;56.88;99589.87;1738240;81;21203;-59
2021/04/20 05:38:19;;;;;;;;;;;;;;;12.59;55.80;99587.02;1738899;81;20270;-59
2021/04/20 05:40:47;;;;;;;;;;;;;;;13.13;54.88;99586.24;1719814;82;20143;-59
2021/04/20 05:43:15;;;;;;;;;;;;;;;13.84;53.37;99590.67;1743091;81;20117;-59
2021/04/20 05:45:43;;;;;;;;;;;;;;;14.64;51.16;99587.09;1741093;81;20233;-59
2021/04/20 05:48:12;;;;;;;;;;;;;;;15.68;48.43;99579.42;1739360;81;21966;-59
2021/04/20 05:50:42;;;;;;;;;;;;;;;16.95;46.07;99576.13;1720731;81;20528;-60
2021/04/20 05:53:10;;;;;;;;;;;;;;;18.31;42.68;99570.66;1733515;81;20274;-58
2021/04/20 05:55:38;;;;;;;;;;;;;;;19.61;38.25;99572.13;1709280;82;20219;-61
2021/04/20 05:58:06;;;;;;;;;;;;;;;20.57;37.11;99564.39;1736238;81;20140;-59
2021/04/20 06:00:33;;;;;;;;;;;;;;;21.57;35.09;99566.81;1733920;81;21257;-64
2021/04/20 06:03:01;;;;;;;;;;;;;;;22.40;33.47;99563.52;1735927;81;20252;-62
2021/04/20 06:05:29;;;;;;;;;;;;;;;22.63;32.05;99561.24;1734231;81;20212;-61
2021/04/20 06:08:00;;;;;;;;;;;;;;;22.47;32.21;99548.05;1734095;81;20234;-59
2021/04/20 06:10:31;;;;;;;;;;;;;;;22.29;32.00;99551.27;1732605;81;20217;-59
2021/04/20 06:12:58;;;;;;;;;;;;;;;22.14;33.01;99548.95;1732492;81;21207;-60
2021/04/20 06:15:26;;;;;;;;;;;;;;;22.77;32.69;99544.73;1733547;81;20164;-59
2021/04/20 06:17:56;;;;;;;;;;;;;;;23.79;30.67;99523.66;1735325;82;20172;-59
2021/04/20 06:20:24;;;;;;;;;;;;;;;24.19;29.73;99525.84;1719289;82;20176;-60
2021/04/20 06:22:54;;;;;;;;;;;;;;;24.51;29.96;99529.05;1735838;81;20160;-60
2021/04/20 06:28:53;;;;;;;;;;;;;;;26.20;27.71;99533.70;1731680;82;20233;-60
2021/04/20 06:34:52;;;;;;;;;;;;;;;27.01;26.22;99529.69;1733683;81;20189;-61
2021/04/20 06:40:54;;;;;;;;;;;;;;;25.99;26.98;99540.66;1734424;82;20172;-59
2021/04/20 06:46:54;;;;;;;;;;;;;;;23.05;30.01;99527.45;1735993;81;20426;-59
2021/04/20 06:56:39;;;;;;;;;;;;;;;20.26;34.63;99528.27;1732905;81;20169;-59
2021/04/20 07:02:57;;;;;;;;;;;;;;;19.59;36.00;99524.59;1734601;81;20140;-59
2021/04/20 07:09:00;;;;;;;;;;;;;;;19.20;37.24;99527.95;1685139;84;20325;-60
2021/04/20 07:14:59;;;;;;;;;;;;;;;18.73;38.17;99520.21;1682812;84;20175;-60
2021/04/20 07:18:00;;;;;;;;;;;;;;;18.45;38.94;99527.38;1829524;77;20168;-60
2021/04/20 07:20:32;;;;;;;;;;;;;;;18.33;39.39;99521.81;1800981;79;20159;-59
2021/04/20 07:23:27;;;;;;;;;;;;;;;18.23;38.78;99526.53;1801860;79;21215;-60
2021/04/20 07:26:02;;;;;;;;;;;;;;;17.92;39.32;99520.92;1801088;79;20111;-59
2021/04/20 07:28:33;;;;;;;;;;;;;;;17.63;39.94;99519.55;1803003;79;20154;-59
2021/04/20 07:31:17;;;;;;;;;;;;;;;17.47;40.93;99523.74;1804832;79;20115;-60
2021/04/20 07:34:05;;;;;;;;;;;;;;;17.36;40.70;99524.11;1802425;79;20227;-59
2021/04/20 07:37:09;;;;;;;;;;;;;;;17.08;41.00;99514.33;1802253;78;21186;-60
2021/04/20 07:40:07;;;;;;;;;;;;;;;16.91;41.54;99503.88;1802570;79;20111;-61
2021/04/20 07:42:45;;;;;;;;;;;;;;;17.03;41.35;99506.23;1798762;79;20212;-59
2021/04/20 07:45:19;;;;;;;;;;;;;;;17.10;41.39;99502.11;1753255;79;20153;-60
2021/04/20 07:47:50;;;;;;;;;;;;;;;17.16;41.26;99498.27;1803602;78;20719;-61
2021/04/20 07:50:19;;;;;;;;;;;;;;;17.17;41.21;99489.61;1803131;79;21716;-60
2021/04/20 07:52:56;;;;;;;;;;;;;;;17.13;40.73;99481.23;1805744;79;20109;-61
2021/04/20 07:55:27;;;;;;;;;;;;;;;17.04;40.67;99490.27;1800608;79;20152;-59
2021/04/20 07:57:57;;;;;;;;;;;;;;;16.97;40.61;99498.16;1801286;79;20401;-59
2021/04/20 08:00:35;;;;;;;;;;;;;;;16.97;40.50;99495.98;1792855;79;20216;-60
2021/04/20 08:03:26;;;;;;;;;;;;;;;17.06;40.96;99489.42;1806454;79;21331;-58
2021/04/20 08:06:00;;;;;;;;;;;;;;;17.15;40.27;99484.48;1805323;79;20524;-59
2021/04/20 08:08:47;;;;;;;;;;;;;;;16.96;40.67;99488.94;1802113;79;20604;-60
2021/04/20 08:11:28;;;;;;;;;;;;;;;16.96;40.61;99478.11;1798072;79;20196;-59
2021/04/20 08:14:09;;;;;;;;;;;;;;;17.02;41.17;99483.77;1803435;78;20210;-58
2021/04/20 08:19:58;;;;;;;;;;;;;;;16.93;40.15;99474.09;1777932;79;20133;-59
2021/04/20 08:26:02;;;;;;;;;;;;;;;16.61;40.59;99470.48;1775509;80;20134;-59
2021/04/20 08:32:07;;;;;;;;;;;;;;;16.73;41.00;99464.17;1779160;80;20188;-60
2021/04/20 08:38:27;;;;;;;;;;;;;;;17.10;39.93;99452.57;1776255;80;20152;-61
2021/04/20 08:44:41;;;;;;;;;;;;;;;17.02;39.54;99444.52;1774194;80;20140;-60
2021/04/20 08:50:47;;;;;;;;;;;;;;;16.89;37.85;99443.81;1775993;80;20164;-60
2021/04/20 08:57:03;;;;;;;;;;;;;;;16.77;38.36;99434.67;1783945;80;20161;-60
2021/04/20 09:03:17;;;;;;;;;;;;;;;17.06;38.42;99429.30;1774054;79;20152;-59
2021/04/20 09:09:17;;;;;;;;;;;;;;;17.14;37.50;99427.34;1777169;80;20152;-59
2021/04/20 09:15:21;;;;;;;;;;;;;;;17.09;36.92;99414.39;1780765;80;20310;-61
2021/04/20 09:24:57;;;;;;;;;;;;;;;16.95;37.76;99404.22;1781415;80;20311;-60
2021/04/20 09:27:29;;;;;;;;;;;;;;;17.09;36.32;99392.20;1764110;80;20298;-60
2021/04/20 09:33:42;;;;;;;;;;;;;;;17.31;35.34;99384.95;1778989;80;20534;-60
2021/04/20 09:39:42;;;;;;;;;;;;;;;17.46;35.51;99379.09;1778882;80;20522;-60
2021/04/20 09:45:42;;;;;;;;;;;;;;;17.61;35.15;99361.31;1778402;80;20150;-60
2021/04/20 09:51:54;;;;;;;;;;;;;;;17.62;35.15;99357.52;1780350;80;20529;-59
2021/04/20 09:57:54;;;;;;;;;;;;;;;17.51;36.35;99341.91;1782721;80;20322;-60
2021/04/20 10:00:29;;;;;;;;;;;;;;;17.44;36.72;99347.42;1829103;77;20207;-61
2021/04/20 10:03:25;;;;;;;;;;;;;;;17.34;36.73;99344.27;1784725;79;20185;-60
2021/04/20 10:06:20;;;;;;;;;;;;;;;17.25;36.79;99341.39;1804106;79;21129;-61
2021/04/20 10:09:04;;;;;;;;;;;;;;;17.14;36.92;99337.20;1800886;79;20140;-60
2021/04/20 10:11:40;;;;;;;;;;;;;;;16.99;36.91;99337.60;1794036;79;20217;-59
2021/04/20 10:14:16;;;;;;;;;;;;;;;16.92;37.45;99338.48;1798582;79;20223;-60
2021/04/20 10:16:50;;;;;;;;;;;;;;;16.88;37.46;99332.02;1802727;79;20113;-60
2021/04/20 10:19:38;;;;;;;;;;;;;;;16.79;37.54;99326.94;1802520;79;21469;-62
2021/04/20 10:22:28;;;;;;;;;;;;;;;16.70;37.26;99342.17;1793766;78;21103;-60
2021/04/20 10:25:09;;;;;;;;;;;;;;;16.49;37.52;99332.05;1791844;79;20159;-59
2021/04/20 10:27:38;;;;;;;;;;;;;;;16.35;37.82;99338.09;1785460;79;20143;-60
2021/04/20 10:30:20;;;;;;;;;;;;;;;16.32;38.07;99333.81;1786920;80;20273;-59
2021/04/20 10:32:51;;;;;;;;;;;;;;;16.33;37.81;99323.23;1780636;80;21215;-59
2021/04/20 10:35:31;;;;;;;;;;;;;;;16.31;38.73;99327.57;1786796;80;20293;-59
2021/04/20 10:38:00;;;;;;;;;;;;;;;16.34;38.70;99327.03;1783526;80;20151;-59
2021/04/20 10:40:36;;;;;;;;;;;;;;;16.41;38.53;99328.84;1781926;80;20162;-59
2021/04/20 10:43:05;;;;;;;;;;;;;;;16.50;38.00;99326.91;1799233;79;20311;-59
2021/04/20 10:45:34;;;;;;;;;;;;;;;16.46;37.87;99332.09;1799471;79;22110;-60
2021/04/20 10:48:02;;;;;;;;;;;;;;;16.40;37.66;99331.84;1796114;79;20736;-59
2021/04/20 10:50:32;;;;;;;;;;;;;;;16.31;37.27;99328.92;1794106;79;20127;-61
2021/04/20 10:53:04;;;;;;;;;;;;;;;16.15;37.91;99326.89;1791141;79;20257;-61
2021/04/20 10:55:34;;;;;;;;;;;;;;;16.10;39.28;99316.89;1788210;79;20274;-60
2021/04/20 10:58:04;;;;;;;;;;;;;;;16.16;39.33;99322.28;1789053;79;22121;-59
2021/04/20 11:00:33;;;;;;;;;;;;;;;16.17;39.47;99326.61;1771204;80;20648;-61
2021/04/20 11:03:01;;;;;;;;;;;;;;;16.10;39.87;99318.80;1762694;81;20604;-60
2021/04/20 11:05:30;;;;;;;;;;;;;;;16.03;40.58;99319.65;1762425;80;20282;-62
2021/04/20 11:07:58;;;;;;;;;;;;;;;16.08;41.01;99317.73;1762770;81;20243;-59
2021/04/20 11:10:34;;;;;;;;;;;;;;;16.18;40.49;99297.94;1763138;81;21389;-59
2021/04/20 11:13:03;;;;;;;;;;;;;;;16.16;41.06;99309.56;1733731;81;20227;-61
2021/04/20 11:15:31;;;;;;;;;;;;;;;16.24;41.95;99307.63;1686351;81;20223;-61
2021/04/20 11:18:06;;;;;;;;;;;;;;;16.40;41.31;99306.14;1761237;81;20223;-66
2021/04/20 11:20:42;;;;;;;;;;;;;;;16.44;40.64;99308.03;1761764;81;20223;-61
2021/04/20 11:23:16;;;;;;;;;;;;;;;16.42;40.14;99305.34;1762800;81;21235;-60
2021/04/20 11:25:54;;;;;;;;;;;;;;;16.29;40.50;99305.42;1762640;81;20152;-56
2021/04/20 11:28:44;;;;;;;;;;;;;;;16.13;41.16;99304.72;1762454;81;20253;-61
2021/04/20 11:31:20;;;;;;;;;;;;;;;16.01;42.01;99303.71;1767723;80;20120;-59
2021/04/20 11:33:55;;;;;;;;;;;;;;;15.90;42.20;99300.28;1771729;80;20185;-62
2021/04/20 11:36:27;;;;;;;;;;;;;;;15.77;42.21;99295.45;1760055;80;21209;-60
2021/04/20 11:38:58;;;;;;;;;;;;;;;15.48;42.76;99300.72;1762524;81;20227;-60
2021/04/20 11:41:31;;;;;;;;;;;;;;;15.17;43.75;99300.83;1762466;81;20228;-59
2021/04/20 11:44:00;;;;;;;;;;;;;;;15.07;43.89;99301.66;1773682;79;20138;-60
2021/04/20 11:46:29;;;;;;;;;;;;;;;15.04;44.43;99303.00;1770031;80;20319;-60
2021/04/20 11:49:09;;;;;;;;;;;;;;;15.07;44.23;99289.51;1778484;80;21197;-59
2021/04/20 11:51:39;;;;;;;;;;;;;;;15.03;44.54;99289.27;1776920;80;20203;-63
2021/04/20 11:54:07;;;;;;;;;;;;;;;14.98;44.59;99287.11;1777465;80;20212;-60
2021/04/20 11:56:39;;;;;;;;;;;;;;;14.96;45.09;99282.51;1779328;80;20333;-61
2021/04/20 11:59:07;;;;;;;;;;;;;;;14.91;45.17;99275.23;1777488;80;20248;-60
2021/04/20 12:01:35;;;;;;;;;;;;;;;14.80;45.46;99276.36;1773106;80;21206;-60
2021/04/20 12:04:05;;;;;;;;;;;;;;;14.71;46.13;99275.55;1777877;80;20516;-62
2021/04/20 12:06:44;;;;;;;;;;;;;;;14.71;46.43;99271.50;1777101;80;20197;-62
2021/04/20 12:09:17;;;;;;;;;;;;;;;14.78;46.62;99267.71;1779774;79;20189;-61
2021/04/20 12:11:47;;;;;;;;;;;;;;;14.82;46.53;99260.70;1778687;80;20275;-61
2021/04/20 12:14:18;;;;;;;;;;;;;;;14.77;46.80;99249.93;1758411;80;21306;-62
2021/04/20 12:16:50;;;;;;;;;;;;;;;14.78;46.87;99258.27;1777126;80;20145;-60
2021/04/20 12:19:19;;;;;;;;;;;;;;;14.82;46.98;99260.70;1776656;80;20222;-61
2021/04/20 12:21:48;;;;;;;;;;;;;;;14.85;46.47;99258.25;1777733;80;20134;-61
2021/04/20 12:24:21;;;;;;;;;;;;;;;14.86;46.59;99255.03;1773191;80;20237;-60
2021/04/20 12:26:55;;;;;;;;;;;;;;;14.89;46.64;99256.63;1755878;80;21139;-59
2021/04/20 12:29:30;;;;;;;;;;;;;;;14.95;45.91;99251.23;1775399;80;20233;-60
2021/04/20 12:31:58;;;;;;;;;;;;;;;14.91;45.71;99256.34;1778556;80;20169;-63
2021/04/20 12:34:27;;;;;;;;;;;;;;;14.84;45.77;99247.73;1779053;80;20134;-61
2021/04/20 12:37:00;;;;;;;;;;;;;;;14.76;46.45;99254.50;1778406;79;20220;-60
2021/04/20 12:39:45;;;;;;;;;;;;;;;14.76;45.77;99252.35;1778266;80;21367;-63
2021/04/20 12:42:16;;;;;;;;;;;;;;;14.70;46.56;99252.90;1773538;80;20540;-61
2021/04/20 12:44:48;;;;;;;;;;;;;;;14.76;46.24;99256.40;1778590;80;20211;-61
2021/04/20 12:47:16;;;;;;;;;;;;;;;14.73;45.78;99254.25;1780356;80;20146;-59
2021/04/20 12:49:48;;;;;;;;;;;;;;;14.58;46.34;99257.20;1777068;80;20138;-62
2021/04/20 12:52:19;;;;;;;;;;;;;;;14.52;46.61;99242.11;1779423;79;22118;-59
2021/04/20 12:54:49;;;;;;;;;;;;;;;14.41;46.81;99246.68;1773075;80;20203;-60
2021/04/20 12:57:19;;;;;;;;;;;;;;;14.33;47.10;99254.78;1779340;80;20224;-58
2021/04/20 12:59:50;;;;;;;;;;;;;;;14.34;47.33;99251.02;1748314;80;20516;-60
2021/04/20 13:02:20;;;;;;;;;;;;;;;14.40;47.66;99255.05;1758110;80;20198;-59
2021/04/20 13:04:49;;;;;;;;;;;;;;;14.44;46.48;99254.26;1727438;80;21213;-62
2021/04/20 13:07:24;;;;;;;;;;;;;;;14.37;46.96;99255.06;1758159;80;20212;-61
2021/04/20 13:09:52;;;;;;;;;;;;;;;14.34;46.38;99244.27;1757512;80;20327;-59
2021/04/20 13:12:25;;;;;;;;;;;;;;;14.28;46.61;99256.66;1756690;80;20160;-60
2021/04/20 13:14:59;;;;;;;;;;;;;;;14.26;46.62;99252.09;1758798;80;20236;-61
2021/04/20 13:17:29;;;;;;;;;;;;;;;14.31;46.75;99236.73;1757646;80;21266;-59
2021/04/20 13:19:59;;;;;;;;;;;;;;;14.29;46.88;99247.51;1730943;80;20249;-60
2021/04/20 13:22:28;;;;;;;;;;;;;;;14.24;47.45;99248.88;1758776;80;20261;-60
2021/04/20 13:24:57;;;;;;;;;;;;;;;14.31;47.64;99241.30;1758721;80;20212;-59
2021/04/20 13:27:26;;;;;;;;;;;;;;;14.39;47.11;99240.77;1758380;80;20228;-61
2021/04/20 13:29:54;;;;;;;;;;;;;;;14.48;47.16;99239.69;1754616;80;21204;-60
2021/04/20 13:32:22;;;;;;;;;;;;;;;14.54;46.64;99241.28;1750103;80;20236;-60
2021/04/20 13:34:53;;;;;;;;;;;;;;;14.53;46.80;99245.05;1745280;82;20229;-59
2021/04/20 13:37:28;;;;;;;;;;;;;;;14.53;46.71;99243.70;1744666;82;20173;-60
2021/04/20 13:39:58;;;;;;;;;;;;;;;14.53;46.59;99247.75;1748532;80;20320;-61
2021/04/20 13:42:28;;;;;;;;;;;;;;;14.54;46.92;99247.48;1753383;80;21262;-59
2021/04/20 13:45:08;;;;;;;;;;;;;;;14.69;46.68;99249.92;1815623;77;20331;-60
2021/04/20 13:47:35;;;;;;;;;;;;;;;14.70;46.17;99234.81;1794650;79;20537;-60
2021/04/20 13:50:07;;;;;;;;;;;;;;;14.75;46.03;99246.68;1794857;79;22621;-58
2021/04/20 13:52:38;;;;;;;;;;;;;;;14.79;46.11;99237.77;1798328;79;20489;-61
2021/04/20 13:55:14;;;;;;;;;;;;;;;14.73;47.07;99246.95;1796203;79;20161;-63
2021/04/20 13:57:45;;;;;;;;;;;;;;;14.71;47.55;99245.08;1798156;79;20145;-60
2021/04/20 14:00:14;;;;;;;;;;;;;;;14.68;47.58;99243.73;1785942;79;20151;-60
2021/04/20 14:02:53;;;;;;;;;;;;;;;14.65;48.11;99243.45;1692760;84;22177;-60
2021/04/20 14:05:24;;;;;;;;;;;;;;;14.62;47.75;99248.04;1692043;84;20146;-60
2021/04/20 14:07:53;;;;;;;;;;;;;;;14.62;47.88;99242.65;1692798;84;20130;-59
2021/04/20 14:10:25;;;;;;;;;;;;;;;14.61;48.07;99248.59;1692772;84;20142;-61
2021/04/20 14:12:55;;;;;;;;;;;;;;;14.64;48.56;99247.25;1688896;84;20256;-59
2021/04/20 14:15:28;;;;;;;;;;;;;;;14.67;48.49;99239.95;1689963;84;21297;-61
2021/04/20 14:18:16;;;;;;;;;;;;;;;14.59;48.83;99244.52;1827927;77;20183;-60
2021/04/20 14:20:47;;;;;;;;;;;;;;;14.49;49.14;99243.45;1800689;79;20199;-62
2021/04/20 14:23:17;;;;;;;;;;;;;;;14.42;49.03;99244.27;1680088;83;21383;-62
2021/04/20 14:25:53;;;;;;;;;;;;;;;14.35;49.40;99236.47;1829304;77;20239;-61
2021/04/20 14:28:31;;;;;;;;;;;;;;;14.25;49.51;99243.73;1801107;79;20128;-65
2021/04/20 14:30:59;;;;;;;;;;;;;;;14.22;49.71;99245.06;1801058;79;21144;-62
2021/04/20 14:33:30;;;;;;;;;;;;;;;14.22;49.67;99242.38;1800705;79;20194;-63
2021/04/20 14:35:59;;;;;;;;;;;;;;;14.27;49.56;99244.28;1797796;79;20115;-63
2021/04/20 14:38:36;;;;;;;;;;;;;;;14.28;49.37;99248.05;1800707;79;20227;-62
2021/04/20 14:41:04;;;;;;;;;;;;;;;14.29;48.91;99246.95;1803594;79;20135;-62
2021/04/20 14:43:32;;;;;;;;;;;;;;;14.24;48.61;99236.73;1802322;79;21360;-61
2021/04/20 14:46:00;;;;;;;;;;;;;;;14.10;48.17;99243.98;1801180;79;20555;-61